Flugplatz Konstanz

EDTZ · Baden-Württemberg, Duitsland

METAR historie EDTZ · Flugplatz Konstanz

Hieronder zie je METAR's van de afgelopen dagen. Kies een jaar om door oudere METAR's te bladeren, vanaf het jaar 2007.

19 juni 2024

Tijd Code Weer Temp. Zicht Plafond Wind METAR/SPECI
20:50
V
26 °C 10 km+ - 040° 040° 5 kt METAR EDNY 191850Z 04005KT 300V070 CAVOK 26/19 Q1017
20:20
V
26 °C 10 km+ - 040° 040° 5 kt METAR EDNY 191820Z 04005KT 300V070 CAVOK 26/19 Q1017
19:50
V
28 °C 10 km+ - Var Var 4 kt METAR EDNY 191750Z VRB04KT CAVOK 28/18 Q1016
19:20
V
29 °C 10 km+ - 220° 220° 4 kt METAR EDNY 191720Z 22004KT 200V270 CAVOK 29/17 Q1015
18:50
V
29 °C 10 km+ - 260° 260° 5 kt METAR EDNY 191650Z 26005KT 230V300 CAVOK 29/16 Q1015
18:20
V
30 °C 10 km+ - 270° 270° 4 kt METAR EDNY 191620Z 27004KT 200V350 CAVOK 30/16 Q1015
17:50
V
30 °C 10 km+ - 250° 250° 4 kt METAR EDNY 191550Z 25004KT 200V340 CAVOK 30/17 Q1015
17:20
V
30 °C 10 km+ - 230° 230° 5 kt METAR EDNY 191520Z 23005KT 200V260 CAVOK 30/17 Q1015
16:50
V
30 °C 10 km+ - 240° 240° 6 kt METAR EDNY 191450Z 24006KT 200V280 CAVOK 30/17 Q1014
16:20
V
29 °C 10 km+ - 280° 280° 6 kt METAR EDNY 191420Z 28006KT 220V340 CAVOK 29/16 Q1015
15:50
V
29 °C 10 km+ - 270° 270° 6 kt METAR EDNY 191350Z 27006KT 170V340 CAVOK 29/15 Q1015
15:20
V
29 °C 10 km+ - 260° 260° 5 kt METAR EDNY 191320Z 26005KT 220V310 CAVOK 29/15 Q1015
14:50
V
29 °C 10 km+ - 240° 240° 6 kt METAR EDNY 191250Z 24006KT 210V290 CAVOK 29/17 Q1015
14:20
V
29 °C 10 km+ - Var Var 6 kt METAR EDNY 191220Z VRB06KT CAVOK 29/18 Q1015
13:50
V
29 °C 10 km+ - 320° 320° 3 kt METAR EDNY 191150Z 32003KT 230V030 CAVOK 29/15 Q1014
13:20
V
28 °C 10 km+ - Var Var 3 kt METAR EDNY 191120Z VRB03KT CAVOK 28/18 Q1014
12:50
V
28 °C 10 km+ - Var Var 2 kt METAR EDNY 191050Z VRB02KT CAVOK 28/17 Q1014
12:20
V
27 °C 10 km+ - Var Var 2 kt METAR EDNY 191020Z VRB02KT CAVOK 27/17 Q1014
11:50
V
27 °C 9 km - Var Var 4 kt METAR EDNY 190950Z VRB04KT 9000 NSC 27/17 Q1014
11:20
V
26 °C 10 km+ - 080° 080° 5 kt METAR EDNY 190920Z 08005KT 350V110 CAVOK 26/17 Q1014
10:50
V
25 °C 10 km+ - 060° 060° 6 kt METAR EDNY 190850Z 06006KT 020V100 CAVOK 25/17 Q1014
10:20
V
24 °C 10 km+ - 070° 070° 9 kt METAR EDNY 190820Z 07009KT CAVOK 24/17 Q1014
09:50
V
24 °C 10 km+ - 060° 060° 9 kt METAR EDNY 190750Z 06009KT CAVOK 24/17 Q1014
08:50
V
22 °C 10 km+ - 040° 040° 12 kt METAR EDNY 190650Z 04012KT CAVOK 22/17 Q1014
08:20
V
21 °C 10 km+ - 030° 030° 10 kt METAR EDNY 190620Z 03010KT CAVOK 21/17 Q1014
07:50
V
19 °C 10 km+ - Var Var 2 kt METAR EDNY 190550Z VRB02KT CAVOK 19/16 Q1014
07:20
V
18 °C 10 km+ - 030° 030° 4 kt METAR EDNY 190520Z 03004KT 350V110 CAVOK 18/16 Q1014
06:50
V
17 °C 10 km+ - 040° 040° 5 kt METAR EDNY 190450Z 04005KT 360V060 CAVOK 17/15 Q1014
06:20
V
15 °C 10 km+ - 060° 060° 4 kt METAR EDNY 190420Z 06004KT CAVOK 15/15 Q1014
05:50
V
16 °C 10 km+ - 050° 050° 4 kt METAR EDNY 190350Z 05004KT 350V090 CAVOK 16/15 Q1014
05:20
V
17 °C 10 km+ - 030° 030° 3 kt METAR EDNY 190320Z AUTO 03003KT 340V080 9999 // NCD 17/15 Q1014
04:50
V
15 °C 10 km+ - 040° 040° 4 kt METAR EDNY 190250Z AUTO 04004KT 340V060 9999 // FEW150/// 15/15 Q1014
04:20
V
15 °C 10 km+ - 060° 060° 3 kt METAR EDNY 190220Z AUTO 06003KT 010V080 9999 // FEW150/// 15/15 Q1014
03:50
V
15 °C 10 km+ - 100° 100° 3 kt METAR EDNY 190150Z AUTO 10003KT 9999 // NCD 15/15 Q1014
03:20
V
15 °C 10 km+ - 030° 030° 3 kt METAR EDNY 190120Z AUTO 03003KT 320V080 9999 // NCD 15/15 Q1014
02:50
V
16 °C 10 km+ - 050° 050° 4 kt METAR EDNY 190050Z AUTO 05004KT 9999 // NCD 16/16 Q1014
02:20
V
16 °C 10 km+ - 360° 360° 0 kt METAR EDNY 190020Z AUTO 00000KT 9999 // NCD 16/16 Q1014
01:50
V
16 °C 10 km+ - Var Var 2 kt METAR EDNY 182350Z AUTO VRB02KT 9999 // NCD 16/16 Q1014
01:20
V
17 °C 10 km+ - 290° 290° 5 kt METAR EDNY 182320Z AUTO 29005KT 210V330 9999 // NCD 17/17 Q1013
00:50
V
17 °C 10 km+ - 090° 090° 3 kt METAR EDNY 182250Z AUTO 09003KT 9999 // NCD 17/17 Q1013
00:20
V
18 °C 10 km+ - Var Var 1 kt METAR EDNY 182220Z AUTO VRB01KT 9999 // NCD 18/16 Q1013

18 juni 2024

Tijd Code Weer Temp. Zicht Plafond Wind METAR/SPECI
23:50
V
18 °C 10 km+ - Var Var 2 kt METAR EDNY 182150Z AUTO VRB02KT 9999 // NCD 18/16 Q1013
23:20
V
18 °C 10 km+ - 360° 360° 0 kt METAR EDNY 182120Z AUTO 00000KT 9999 // NCD 18/18 Q1013
22:50
V
20 °C 10 km+ 25.000 ft Var Var 2 kt METAR EDNY 182050Z AUTO VRB02KT 9999 // BKN250/// 20/17 Q1013
22:20
V
22 °C 10 km+ 25.000 ft Var Var 2 kt METAR EDNY 182020Z AUTO VRB02KT 9999 // BKN250/// 22/17 Q1013
21:50
V
21 °C 10 km+ - Var Var 2 kt METAR EDNY 181950Z VRB02KT CAVOK 21/16 Q1013
21:20
V
23 °C 10 km+ - 360° 360° 0 kt METAR EDNY 181920Z 00000KT CAVOK 23/16 Q1012
20:50
V
25 °C 10 km+ - 360° 360° 0 kt METAR EDNY 181850Z 00000KT CAVOK 25/15 Q1012
20:20
V
26 °C 10 km+ - Var Var 1 kt METAR EDNY 181820Z VRB01KT CAVOK 26/16 Q1012
19:50
V
28 °C 10 km+ - Var Var 1 kt METAR EDNY 181750Z VRB01KT CAVOK 28/16 Q1012
19:20
V
29 °C 10 km+ - 250° 250° 4 kt METAR EDNY 181720Z 25004KT 190V300 CAVOK 29/16 Q1012
18:50
V
31 °C 10 km+ - Var Var 2 kt METAR EDNY 181650Z VRB02KT CAVOK 31/10 Q1012
18:20
V
30 °C 10 km+ - 290° 290° 3 kt METAR EDNY 181620Z 29003KT 230V320 CAVOK 30/09 Q1012
17:50
V
31 °C 10 km+ - 290° 290° 3 kt METAR EDNY 181550Z 29003KT 250V350 CAVOK 31/09 Q1013
17:20
V
31 °C 10 km+ - 270° 270° 3 kt METAR EDNY 181520Z 27003KT 230V310 CAVOK 31/08 Q1013
16:50
V
31 °C 10 km+ - Var Var 4 kt METAR EDNY 181450Z VRB04KT CAVOK 31/09 Q1013
16:20
V
32 °C 10 km+ - Var Var 4 kt METAR EDNY 181420Z VRB04KT CAVOK 32/08 Q1013
15:50
V
31 °C 10 km+ - 140° 140° 5 kt METAR EDNY 181350Z 14005KT 100V170 CAVOK 31/15 Q1013
15:20
V
30 °C 10 km+ - 190° 190° 5 kt METAR EDNY 181320Z 19005KT 160V220 CAVOK 30/15 Q1014
14:50
V
29 °C 10 km+ - 200° 200° 5 kt METAR EDNY 181250Z 20005KT 150V250 CAVOK 29/15 Q1014
14:20
V
28 °C 10 km+ - 200° 200° 5 kt METAR EDNY 181220Z 20005KT 150V240 CAVOK 28/15 Q1014
13:50
V
27 °C 10 km+ - 230° 230° 5 kt METAR EDNY 181150Z 23005KT 200V260 CAVOK 27/17 Q1014
13:20
V
27 °C 10 km+ - 210° 210° 4 kt METAR EDNY 181120Z 21004KT 120V280 CAVOK 27/18 Q1014
12:50
V
25 °C 10 km+ - 240° 240° 5 kt METAR EDNY 181050Z 24005KT 210V270 CAVOK 25/18 Q1015
12:20
V
25 °C 10 km+ - 200° 200° 4 kt METAR EDNY 181020Z 20004KT 140V290 CAVOK 25/18 Q1015
11:50
V
24 °C 10 km+ - 160° 160° 3 kt METAR EDNY 180950Z 16003KT 090V220 CAVOK 24/16 Q1015
11:20
V
24 °C 10 km+ - 210° 210° 4 kt METAR EDNY 180920Z 21004KT CAVOK 24/17 Q1015
10:50
V
23 °C 10 km+ - Var Var 2 kt METAR EDNY 180850Z VRB02KT CAVOK 23/16 Q1015
10:20
V
22 °C 10 km+ - Var Var 2 kt METAR EDNY 180820Z VRB02KT CAVOK 22/16 Q1016
09:50
V
21 °C 10 km+ - Var Var 2 kt METAR EDNY 180750Z VRB02KT CAVOK 21/16 Q1016
09:20
V
19 °C 10 km+ - Var Var 1 kt METAR EDNY 180720Z VRB01KT CAVOK 19/16 Q1016
08:50
V
18 °C 10 km+ - 010° 010° 3 kt METAR EDNY 180650Z 01003KT 330V090 CAVOK 18/15 Q1016
08:20
V
17 °C 10 km+ - 030° 030° 3 kt METAR EDNY 180620Z 03003KT 340V080 CAVOK 17/16 Q1016
07:50
V
16 °C 10 km+ - 040° 040° 4 kt METAR EDNY 180550Z 04004KT 360V070 CAVOK 16/16 Q1017
07:20
V
16 °C 10 km+ - Var Var 2 kt METAR EDNY 180520Z VRB02KT CAVOK 16/16 Q1017
06:50
V
14 °C 10 km+ - 050° 050° 3 kt METAR EDNY 180450Z 05003KT 020V080 CAVOK 14/14 Q1016
06:20
V
13 °C 10 km+ - 060° 060° 3 kt METAR EDNY 180420Z 06003KT CAVOK 13/13 Q1016
05:50
V
12 °C 10 km+ - Var Var 1 kt METAR EDNY 180350Z VRB01KT CAVOK 12/12 Q1017
05:20
V
12 °C 10 km+ - Var Var 2 kt METAR EDNY 180320Z AUTO VRB02KT 9999 // NCD 12/12 Q1016
04:50
V
13 °C 10 km+ - Var Var 2 kt METAR EDNY 180250Z AUTO VRB02KT 9999 // FEW100/// 13/13 Q1016
04:20
V
14 °C 10 km+ - 030° 030° 3 kt METAR EDNY 180220Z AUTO 03003KT 330V110 9999 // FEW100/// 14/14 Q1016
03:50
V
14 °C 10 km+ 15.000 ft 080° 080° 9 kt METAR EDNY 180150Z AUTO 08009KT 050V110 9999 // FEW030/// SCT089/// BKN150/// 14/14 Q1016
03:20
V
15 °C 10 km+ 8.900 ft 300° 300° 8 kt METAR EDNY 180120Z AUTO 30008KT 260V340 9999 // FEW023/// BKN089/// OVC200/// 15/14 Q1018
02:50
V
14 °C 10 km+ 4.800 ft Var Var 2 kt METAR EDNY 180050Z AUTO VRB02KT 9999 // FEW026/// BKN048/// OVC086/// 14/14 Q1017
02:20
V
14 °C 10 km+ 13.000 ft Var Var 4 kt METAR EDNY 180020Z AUTO VRB04KT 9999 // FEW060/// SCT085/// BKN130/// 14/14 Q1017
01:50
V
14 °C 10 km+ 13.000 ft 050° 050° 5 kt METAR EDNY 172350Z AUTO 05005KT 9999 // FEW097/// BKN130/// 14/14 Q1017
01:20
V
14 °C 10 km+ - 050° 050° 3 kt METAR EDNY 172320Z AUTO 05003KT 360V070 9999 // SCT130/// 14/14 Q1017
00:50
V
14 °C 10 km+ - 050° 050° 3 kt METAR EDNY 172250Z AUTO 05003KT 9999 // FEW094/// 14/14 Q1017
00:20
V
15 °C 10 km+ - Var Var 2 kt METAR EDNY 172220Z AUTO VRB02KT 9999 // SCT130/// 15/15 Q1017

17 juni 2024

Tijd Code Weer Temp. Zicht Plafond Wind METAR/SPECI
23:50
V
14 °C 10 km+ - 050° 050° 4 kt METAR EDNY 172150Z AUTO 05004KT 9999 // SCT130/// 14/14 Q1017
23:20
V
15 °C 10 km+ 13.000 ft Var Var 2 kt METAR EDNY 172120Z AUTO VRB02KT 9999 // BKN130/// 15/15 Q1017
22:50
V
15 °C 10 km+ 14.000 ft 020° 020° 3 kt METAR EDNY 172050Z AUTO 02003KT 9999 // FEW093/// BKN140/// 15/15 Q1017
22:20
V
15 °C 10 km+ 15.000 ft 080° 080° 4 kt METAR EDNY 172020Z AUTO 08004KT 050V110 9999 // FEW090/// SCT130/// BKN150/// 15/15 Q1017
21:50
V
16 °C 10 km+ 9.500 ft 030° 030° 3 kt METAR EDNY 171950Z 03003KT 360V080 9999 BKN095TCU 16/15 Q1017
21:20
V
16 °C 10 km+ - Var Var 2 kt METAR EDNY 171920Z VRB02KT 9999 FEW046TCU 16/16 Q1017
20:50
V
17 °C 10 km+ - 100° 100° 6 kt METAR EDNY 171850Z 10006KT 9999 VCTS FEW050CB 17/15 Q1017
20:20
V
17 °C 10 km+ 4.600 ft 040° 040° 4 kt METAR EDNY 171820Z 04004KT 350V080 9999 BKN046 17/15 Q1017
19:50
V
20 °C 10 km+ 5.500 ft Var Var 3 kt METAR EDNY 171750Z VRB03KT 9999 FEW042 BKN055 20/13 Q1017
19:20
V
20 °C 10 km+ - 350° 350° 8 kt METAR EDNY 171720Z 35008KT 290V020 9999 FEW042 20/13 Q1016
18:50
V
21 °C 10 km+ - 040° 040° 4 kt METAR EDNY 171650Z 04004KT 330V090 9999 FEW040 21/13 Q1016
18:20
V
21 °C 10 km+ 3.900 ft 320° 320° 6 kt METAR EDNY 171620Z 32006KT 280V060 9999 BKN039 21/14 Q1016
17:50
V
22 °C 10 km+ - 330° 330° 5 kt METAR EDNY 171550Z 33005KT 270V050 9999 SCT040 22/15 Q1016
17:20
V
22 °C 10 km+ - 230° 230° 6 kt METAR EDNY 171520Z 23006KT 170V280 9999 FEW040 SCT048 22/15 Q1016
16:50
V
23 °C 10 km+ - Var Var 4 kt METAR EDNY 171450Z VRB04KT CAVOK 23/15 Q1016
16:20
V
23 °C 10 km+ - Var Var 4 kt METAR EDNY 171420Z VRB04KT CAVOK 23/15 Q1016
15:50
V
23 °C 10 km+ - Var Var 3 kt METAR EDNY 171350Z VRB03KT CAVOK 23/14 Q1015
15:20
V
22 °C 10 km+ - 270° 270° 4 kt METAR EDNY 171320Z 27004KT 220V310 9999 FEW032 22/15 Q1016
14:50
V
22 °C 10 km+ - 280° 280° 4 kt METAR EDNY 171250Z 28004KT 230V340 9999 FEW032 22/14 Q1016
14:20
V
23 °C 10 km+ - 280° 280° 5 kt METAR EDNY 171220Z 28005KT 240V330 9999 FEW042 23/14 Q1016
13:50
V
23 °C 10 km+ - 290° 290° 4 kt METAR EDNY 171150Z 29004KT 210V360 9999 FEW042 23/15 Q1016
13:20
V
23 °C 10 km+ - 280° 280° 5 kt METAR EDNY 171120Z 28005KT 190V330 CAVOK 23/14 Q1016
12:50
V
23 °C 10 km+ - 280° 280° 5 kt METAR EDNY 171050Z 28005KT 200V340 CAVOK 23/15 Q1016
12:20
V
23 °C 10 km+ - 280° 280° 6 kt METAR EDNY 171020Z 28006KT CAVOK 23/14 Q1016
11:50
V
22 °C 10 km+ - 280° 280° 5 kt METAR EDNY 170950Z 28005KT CAVOK 22/13 Q1016
11:20
V
22 °C 10 km+ - 250° 250° 6 kt METAR EDNY 170920Z 25006KT CAVOK 22/15 Q1016
10:50
V
22 °C 10 km+ - Var Var 3 kt METAR EDNY 170850Z VRB03KT CAVOK 22/15 Q1016
10:20
I
21 °C 2,8 km - Var Var 2 kt METAR EDNY 170820Z VRB02KT 2800 R24/1200U NSC 21/15 Q1015
09:50
V
19 °C 10 km+ - 140° 140° 3 kt METAR EDNY 170750Z 14003KT 100V190 CAVOK 19/15 Q1015
09:20
V
19 °C 10 km+ - Var Var 2 kt METAR EDNY 170720Z VRB02KT CAVOK 19/15 Q1015
08:50
V
18 °C 10 km+ - Var Var 2 kt METAR EDNY 170650Z VRB02KT CAVOK 18/15 Q1015
08:20
V
16 °C 10 km+ - Var Var 2 kt METAR EDNY 170620Z VRB02KT CAVOK 16/16 Q1015
07:50
V
16 °C 10 km+ - 050° 050° 3 kt METAR EDNY 170550Z 05003KT CAVOK 16/16 Q1015
Wijziging doorgeven